EPSC/SZZ METAR and TAF weather

Enter ICAO airport designator
Station Type Date Time Source
EPSC METAR 2021/02/24 17:30 UTC NOAA

EPSC 241730Z 10004KT CAVOK 10/07 Q1028


Station Type Date Time Source
EPSC Decoded METAR 2021/02/24 17:30 UTC NOAA

Szczecin, Poland (EPSC) 53-24N 014-37E 3M
Feb 24, 2021 - 12:30 PM EST / 2021.02.24 1730 UTC
Wind: from the E (100 degrees) at 5 MPH (4 KT):0
Visibility: greater than 7 mile(s):0
Temperature: 50 F (10 C)
Dew Point: 44 F (7 C)
Relative Humidity: 81%
Pressure (altimeter): 30.36 in. Hg (1028 hPa)
ob: EPSC 241730Z 10004KT CAVOK 10/07 Q1028
cycle: 17

Station Type Date Time Source
EPSC TAF 2021/02/24 18:33 UTC NOAA

TAF EPSC 241730Z 2418/2518 20004KT CAVOK PROB30 2423/2507 3000 BR

Example: see airport list